MA12 weather

Marston Mills Seaplane Base
Marstons Mills, Massachusetts, United States

Public forecast

Using degrees Fahrenheit for public forecast. Weather courtesy of forecast.io.

METAR (pilot weather report)

Closest report is Cape Cod Coast Guard Air Station, 4.7 nm (8.7 km) W. Retrieved 2019/09/23 13:45 UTC (58 minutes ago):

KFMH 231345Z 24018G26KT 10SM CLR 23/18 A2992

TAF (pilot weather forecast)

Closest forecast is Cape Cod Coast Guard Air Station, 4.7 nm (8.7 km) W. Retrieved 2019/09/23 12:24 UTC (2 hours ago):

TAF KFMH 231120Z 2312/2412 22014KT P6SM SCT250 FM240300 23016KT P6SM VCSH OVC060 FM240500 23012KT 6SM -RA BR OVC020 FM240700 23010KT 3SM -RA BR OVC020 FM241000 23008KT 6SM BR VCSH OVC025